Kezdőlap
METAR-TAF:

METAR-TAF

Repülőterek :

Pangnirtung, Nunavut, Kanada

földrajzi szélesség: 66-09N, földrajzi hosszúság: 065-43W, magasság: 23 m

Jelenlegi meteorológiai megfigyelések

A jelentés 25 perccel ezelõtt készült, 16:00 UTC
Kelet-délkeleti szél 4 kt
Hőmérséklet -7°C
Páratartalom 62%
Légköri nyomás 1003 hPa
Látótávolság: 24.1 km
Borult 4500 lábon

METAR: CYXP 281600Z 12004KT 15SM OVC045 M07/M13 A2962 RMK SC8 SLP033

Idő: 12:25 (16:25 UTC)

Előrejelzés

A jelentés 3 órával és 46 perccel ezelõtt készült, 12:39 UTC
Az előrejelzés 28-én 13 óra UTC és 28-én 22 óra UTC között érvényes
Különbözõ irányokból fújó szél 3 kt
Látótávolság: 10 km
Szakadozott felhőzet 4000 lábon
28-én 13 óra UTC és 28-én 22 óra UTC között ideiglenes
Szórványos felhőzet 4000 lábon

TAF: CYXP 281239Z 2813/2822 VRB03KT P6SM BKN040 TEMPO 2813/2822 SCT040 RMK NXT FCST BY 281900Z

Meteorológiai megfigyelések és előrejelzések több, mint 4000 repülőtéren (METAR és TAF jelentéseket).

A térképen piros és sárga pontok jelzik az elérhető meteorológiai állomásokat.

Mozgassa az egeret a pont fölött, hogy megjelenjen az állomás neve.

Azután kattintson az időjárási megfigyelések és előrejelzések megtekintéséhez.

A térkép megváltoztatása: kattintson a fekete keresztel jelölt zöld gombra ráközelítéshez, a vonallal jelölt zöld gombra távolításhoz, vagy a zöld nyilakra a szomszédos térképek eléréséhez.


METAR-TAF: